Time;durP1;ratioP1;P1;durP2;ratioP2;P2;SDS_P1;SDS_P2;PMS_P1;PMS_P2;Temp;Humidity;BMP_temperature;BMP_pressure;BME280_temperature;BME280_humidity;BME280_pressure;Samples;Min_cycle;Max_cycle;Signal;HPM_P1;HPM_P2
2021/09/12 00:01:31;;;;;;;57.90;32.10;;;;;;;12.96;76.61;99569.60;115359;1211;22233;-66
2021/09/12 00:04:00;;;;;;;56.00;29.90;;;;;;;12.95;76.63;99575.08;115487;1202;138469;-67
2021/09/12 00:06:28;;;;;;;59.80;34.80;;;;;;;12.92;76.69;99572.93;115514;1205;22304;-67
2021/09/12 00:08:58;;;;;;;59.70;34.20;;;;;;;12.92;76.70;99578.35;115442;1201;139069;-66
2021/09/12 00:11:29;;;;;;;66.20;35.60;;;;;;;12.93;76.99;99580.05;115526;1208;22285;-67
2021/09/12 00:13:58;;;;;;;68.20;36.50;;;;;;;12.93;76.82;99576.22;115527;1209;22324;-67
2021/09/12 00:16:26;;;;;;;65.80;37.40;;;;;;;12.91;76.91;99574.52;115512;1203;138994;-65
2021/09/12 00:19:13;;;;;;;65.30;39.60;;;;;;;12.93;77.12;99576.05;115542;1205;22488;-65
2021/09/12 00:21:42;;;;;;;68.90;39.50;;;;;;;12.94;77.03;99580.70;115422;1200;138758;-65
2021/09/12 00:24:10;;;;;;;68.50;38.20;;;;;;;12.93;77.00;99579.22;115601;1204;22365;-65
2021/09/12 00:26:38;;;;;;;76.50;44.30;;;;;;;12.91;76.90;99575.61;115427;1202;140389;-65
2021/09/12 00:29:06;;;;;;;75.70;41.40;;;;;;;12.92;77.09;99579.83;115528;1205;22425;-65
2021/09/12 00:31:34;;;;;;;71.90;42.10;;;;;;;12.90;77.21;99575.71;115621;1205;22337;-65
2021/09/12 00:34:02;;;;;;;72.90;43.80;;;;;;;12.90;77.26;99577.23;115375;1202;138135;-65
2021/09/12 00:36:30;;;;;;;85.00;43.60;;;;;;;12.91;77.07;99577.36;115482;1205;22283;-65
2021/09/12 00:38:58;;;;;;;67.40;41.20;;;;;;;12.89;76.98;99578.94;115425;1200;138676;-65
2021/09/12 00:41:26;;;;;;;65.10;38.20;;;;;;;12.88;77.16;99577.95;115551;1205;22210;-65
2021/09/12 00:43:55;;;;;;;64.00;38.50;;;;;;;12.87;77.16;99582.38;115520;1211;23077;-66
2021/09/12 00:46:23;;;;;;;69.10;38.90;;;;;;;12.87;77.30;99577.07;115274;1201;138603;-66
2021/09/12 00:48:51;;;;;;;69.70;39.90;;;;;;;12.87;77.02;99579.03;115580;1205;22423;-66
2021/09/12 00:51:19;;;;;;;69.30;41.10;;;;;;;12.86;76.92;99577.73;115431;1200;138594;-66
2021/09/12 00:53:47;;;;;;;74.00;40.90;;;;;;;12.86;76.91;99577.06;115498;1205;23906;-66
2021/09/12 00:56:15;;;;;;;61.60;40.40;;;;;;;12.85;76.84;99579.20;113517;1201;137929;-65
2021/09/12 00:58:44;;;;;;;68.90;42.30;;;;;;;12.83;76.81;99576.38;111453;1205;22443;-65
2021/09/12 01:01:13;;;;;;;73.40;41.70;;;;;;;12.81;76.83;99574.34;115523;1205;23257;-66
2021/09/12 01:03:42;;;;;;;69.00;40.00;;;;;;;12.79;77.05;99571.71;115434;1202;138896;-66
2021/09/12 01:08:34;;;;;;;68.50;36.60;;;;;;;12.78;77.18;99571.98;110053;1227;544875;-66
2021/09/12 01:11:22;;;;;;;63.40;38.80;;;;;;;12.72;77.17;99566.39;111080;1215;23882;-65
2021/09/12 01:13:51;;;;;;;78.70;39.50;;;;;;;12.70;77.20;99574.31;111025;1212;22460;-65
2021/09/12 01:16:20;;;;;;;76.90;38.30;;;;;;;12.68;77.41;99576.46;115204;1205;137790;-65
2021/09/12 01:19:08;;;;;;;66.80;37.50;;;;;;;12.66;77.45;99576.77;115344;1208;22260;-66
2021/09/12 01:21:42;;;;;;;59.80;37.80;;;;;;;12.66;77.56;99574.20;115186;1205;138704;-66
2021/09/12 01:24:11;;;;;;;58.80;36.50;;;;;;;12.64;77.71;99577.32;115372;1215;22287;-66
2021/09/12 01:26:39;;;;;;;65.80;38.80;;;;;;;12.65;77.59;99576.06;115163;1204;138248;-63
2021/09/12 01:29:08;;;;;;;63.80;37.70;;;;;;;12.64;77.48;99578.63;115307;1215;22277;-66
2021/09/12 01:31:38;;;;;;;61.30;35.70;;;;;;;12.66;77.58;99576.29;115373;1208;22330;-66
2021/09/12 01:34:07;;;;;;;61.10;36.50;;;;;;;12.67;77.80;99576.52;115205;1205;138763;-66
2021/09/12 01:36:36;;;;;;;57.90;37.10;;;;;;;12.67;77.71;99577.06;115259;1208;23134;-66
2021/09/12 01:39:05;;;;;;;58.10;37.80;;;;;;;12.67;77.83;99578.37;115111;1205;138752;-66
2021/09/12 01:41:36;;;;;;;52.20;35.30;;;;;;;12.67;77.95;99578.31;115290;1209;22359;-66
2021/09/12 01:44:05;;;;;;;55.60;37.00;;;;;;;12.67;77.86;99580.27;115346;1211;22436;-66
2021/09/12 01:46:33;;;;;;;63.70;37.80;;;;;;;12.67;77.75;99575.80;115172;1205;137677;-66
2021/09/12 01:49:07;;;;;;;54.00;35.90;;;;;;;12.67;77.55;99573.83;115314;1214;22714;-66
2021/09/12 01:51:35;;;;;;;53.70;33.70;;;;;;;12.66;77.51;99575.58;115218;1208;137703;-66
2021/09/12 01:54:03;;;;;;;57.00;34.40;;;;;;;12.65;77.45;99576.88;115246;1216;22290;-67
2021/09/12 01:56:32;;;;;;;59.50;35.10;;;;;;;12.64;77.50;99575.40;115241;1205;138391;-62
2021/09/12 01:59:01;;;;;;;51.70;34.50;;;;;;;12.63;77.52;99570.70;115241;1208;23458;-62
2021/09/12 02:01:29;;;;;;;52.70;34.20;;;;;;;12.61;77.43;99575.02;115276;1209;22365;-62
2021/09/12 02:03:58;;;;;;;54.10;35.50;;;;;;;12.59;77.47;99572.20;115192;1208;138565;-63
2021/09/12 02:06:45;;;;;;;52.60;32.90;;;;;;;12.57;77.53;99567.98;115305;1211;23157;-62
2021/09/12 02:09:14;;;;;;;57.00;35.00;;;;;;;12.54;77.38;99567.02;115007;1207;138712;-63
2021/09/12 02:11:42;;;;;;;57.50;35.10;;;;;;;12.52;77.43;99568.33;115271;1210;22334;-64
2021/09/12 02:14:10;;;;;;;58.70;35.70;;;;;;;12.51;77.34;99569.74;115184;1205;137979;-63
2021/09/12 02:16:58;;;;;;;52.00;35.30;;;;;;;12.49;77.38;99573.17;115335;1208;22393;-66
2021/09/12 02:19:26;;;;;;;53.20;34.30;;;;;;;12.45;77.37;99569.13;115299;1211;22327;-66
2021/09/12 02:21:58;;;;;;;59.70;35.10;;;;;;;12.46;77.42;99573.54;115152;1211;137852;-66
2021/09/12 02:24:26;;;;;;;64.00;36.00;;;;;;;12.46;77.49;99573.05;115380;1214;22390;-66
2021/09/12 02:26:55;;;;;;;46.20;33.50;;;;;;;12.42;77.48;99569.44;115148;1205;138319;-66
2021/09/12 02:29:23;;;;;;;58.50;35.40;;;;;;;12.44;77.55;99572.16;115313;1206;23328;-65
2021/09/12 02:32:10;;;;;;;59.70;35.20;;;;;;;12.43;77.44;99570.52;115325;1208;138029;-67
2021/09/12 02:34:38;;;;;;;54.50;35.60;;;;;;;12.42;77.45;99571.40;115305;1208;22277;-65
2021/09/12 02:37:13;;;;;;;58.30;35.10;;;;;;;12.39;77.42;99573.21;115314;1208;22367;-64
2021/09/12 02:39:42;;;;;;;56.30;34.20;;;;;;;12.38;77.63;99569.82;115191;1205;139686;-64
2021/09/12 02:42:10;;;;;;;66.60;34.40;;;;;;;12.38;77.63;99567.96;115328;1208;22231;-64
2021/09/12 02:44:38;;;;;;;52.70;33.70;;;;;;;12.37;77.59;99566.48;115282;1205;138349;-64
2021/09/12 02:47:19;;;;;;;57.60;33.30;;;;;;;12.36;77.73;99567.90;115345;1208;23128;-64
2021/09/12 02:49:47;;;;;;;50.50;32.50;;;;;;;12.35;77.80;99564.49;115339;1208;22248;-64
2021/09/12 02:52:17;;;;;;;52.00;33.20;;;;;;;12.34;77.70;99563.41;115437;1201;138034;-66
2021/09/12 02:54:45;;;;;;;50.80;32.00;;;;;;;12.34;77.67;99564.06;115469;1205;22872;-66
2021/09/12 02:57:13;;;;;;;43.60;31.50;;;;;;;12.34;77.57;99566.41;115381;1202;138022;-66
2021/09/12 02:59:41;;;;;;;53.90;31.70;;;;;;;12.33;77.57;99565.91;115517;1211;22328;-66
2021/09/12 03:02:09;;;;;;;55.00;33.90;;;;;;;12.31;77.41;99564.64;115497;1211;23163;-66
2021/09/12 03:04:37;;;;;;;48.50;31.40;;;;;;;12.29;77.90;99562.23;115394;1201;137652;-66
2021/09/12 03:07:05;;;;;;;47.60;31.80;;;;;;;12.28;77.91;99563.86;115417;1205;22376;-66
2021/09/12 03:09:33;;;;;;;43.30;30.80;;;;;;;12.27;77.81;99562.87;115371;1202;137648;-66
2021/09/12 03:12:21;;;;;;;45.90;31.00;;;;;;;12.24;77.63;99557.91;115487;1209;22330;-66
2021/09/12 03:14:49;;;;;;;49.60;28.40;;;;;;;12.23;77.73;99555.34;115403;1201;138418;-66
2021/09/12 03:17:19;;;;;;;52.70;31.60;;;;;;;12.21;77.68;99554.14;115511;1205;22418;-66
2021/09/12 03:19:49;;;;;;;52.70;29.40;;;;;;;12.20;77.43;99551.08;115529;1205;23135;-66
2021/09/12 03:22:19;;;;;;;49.00;30.00;;;;;;;12.19;77.58;99552.37;115377;1203;137671;-66
2021/09/12 03:25:07;;;;;;;62.00;31.60;;;;;;;12.18;77.65;99555.75;115486;1211;22388;-66
2021/09/12 03:27:35;;;;;;;48.60;30.70;;;;;;;12.16;77.88;99554.27;115407;1201;138108;-65
2021/09/12 03:30:04;;;;;;;51.10;28.60;;;;;;;12.14;77.81;99551.96;115514;1205;23505;-65
2021/09/12 03:32:32;;;;;;;48.70;28.80;;;;;;;12.12;77.73;99555.71;115325;1201;138312;-65
2021/09/12 03:35:01;;;;;;;47.80;30.80;;;;;;;12.11;77.69;99552.13;115468;1205;22333;-65
2021/09/12 03:37:30;;;;;;;58.30;29.50;;;;;;;12.11;77.77;99551.37;111557;1209;23829;-65
2021/09/12 03:39:58;;;;;;;45.40;29.70;;;;;;;12.09;77.63;99552.23;115313;1201;138141;-65
2021/09/12 03:42:26;;;;;;;49.50;29.50;;;;;;;12.07;77.84;99550.90;115472;1205;22316;-65
2021/09/12 03:44:54;;;;;;;49.50;27.90;;;;;;;12.06;77.92;99552.10;115425;1201;138027;-65
2021/09/12 03:47:23;;;;;;;46.60;28.70;;;;;;;12.07;77.85;99554.95;115439;1205;22155;-65
2021/09/12 03:49:51;;;;;;;47.80;28.90;;;;;;;12.07;77.86;99551.62;115481;1205;22348;-65
2021/09/12 03:52:33;;;;;;;48.00;29.50;;;;;;;12.08;78.20;99555.45;115443;1201;137527;-65
2021/09/12 03:55:02;;;;;;;46.00;30.10;;;;;;;12.09;78.19;99554.46;115498;1205;22165;-66
2021/09/12 03:57:30;;;;;;;41.30;28.50;;;;;;;12.11;78.52;99555.45;115321;1204;139162;-66
2021/09/12 03:59:58;;;;;;;60.80;37.70;;;;;;;12.14;78.78;99556.11;115511;1204;22631;-66
2021/09/12 04:02:26;;;;;;;76.10;41.00;;;;;;;12.20;79.06;99558.11;115365;1201;138207;-66
2021/09/12 04:04:55;;;;;;;86.70;48.80;;;;;;;12.27;79.47;99560.80;115571;1205;22224;-66
2021/09/12 04:07:37;;;;;;;117.90;62.60;;;;;;;12.36;79.84;99560.41;115496;1204;22362;-66
2021/09/12 04:10:06;;;;;;;132.60;71.10;;;;;;;12.47;80.10;99559.83;115390;1205;138039;-65
2021/09/12 04:12:34;;;;;;;117.20;62.30;;;;;;;12.59;80.47;99553.90;115579;1205;22844;-64
2021/09/12 04:15:22;;;;;;;;;;;;;;;12.70;80.20;99552.06;115380;1201;139584;-64
2021/09/12 04:17:49;;;;;;;;;;;;;;;12.76;80.00;99554.48;115506;1205;22342;-64
2021/09/12 04:20:17;;;;;;;;;;;;;;;12.82;79.96;99556.20;115462;1201;124577;-63
2021/09/12 04:22:47;;;;;;;174.90;85.30;;;;;;;12.86;79.89;99551.14;115374;1209;22354;-64
2021/09/12 04:25:15;;;;;;;185.30;94.30;;;;;;;12.91;80.09;99548.81;115337;1213;22100;-64
2021/09/12 04:27:45;;;;;;;222.50;96.70;;;;;;;12.99;80.08;99552.64;115388;1201;138985;-64
2021/09/12 04:30:14;;;;;;;213.30;96.50;;;;;;;13.06;80.11;99550.02;115526;1209;22316;-66
2021/09/12 04:32:43;;;;;;;175.70;84.70;;;;;;;13.19;80.44;99548.73;115464;1201;139417;-65
2021/09/12 04:35:11;;;;;;;153.10;77.20;;;;;;;13.39;80.80;99548.49;115442;1205;22353;-65
2021/09/12 04:37:39;;;;;;;133.40;69.40;;;;;;;13.67;80.75;99549.48;111286;1209;25228;-64
2021/09/12 04:40:07;;;;;;;115.90;60.20;;;;;;;13.97;80.32;99546.16;111165;1201;137998;-65
2021/09/12 04:42:36;;;;;;;95.50;55.40;;;;;;;14.22;79.82;99542.55;115492;1205;23057;-65
2021/09/12 04:45:05;;;;;;;73.50;44.20;;;;;;;14.46;79.42;99539.55;115376;1202;138882;-65
2021/09/12 04:47:33;;;;;;;69.10;40.00;;;;;;;14.73;78.70;99534.44;115554;1205;23035;-66
2021/09/12 04:50:00;;;;;;;69.10;40.00;;;;;;;14.99;77.88;99533.98;115484;1205;23212;-65
2021/09/12 04:52:29;;;;;;;65.50;38.70;;;;;;;15.20;77.21;99532.42;115383;1201;138050;-65
2021/09/12 04:54:57;;;;;;;63.90;39.00;;;;;;;15.37;76.65;99529.52;115477;1204;22326;-66
2021/09/12 04:57:26;;;;;;;83.60;38.70;;;;;;;15.52;76.18;99529.22;115386;1202;137817;-65
2021/09/12 04:59:54;;;;;;;66.30;35.80;;;;;;;15.65;75.80;99530.20;115673;1205;22337;-65
2021/09/12 05:02:22;;;;;;;52.90;34.20;;;;;;;15.79;75.50;99531.03;115518;1201;137430;-66
2021/09/12 05:04:52;;;;;;;53.70;34.50;;;;;;;15.92;75.16;99529.61;115671;1204;23476;-66
2021/09/12 05:07:40;;;;;;;54.20;32.70;;;;;;;16.06;74.78;99520.83;111333;1205;22566;-65
2021/09/12 05:10:08;;;;;;;57.00;35.10;;;;;;;16.15;74.47;99519.28;111359;1199;137810;-65
2021/09/12 05:12:37;;;;;;;48.00;32.40;;;;;;;16.26;74.32;99518.09;111492;1209;22430;-66
2021/09/12 05:15:06;;;;;;;47.00;31.60;;;;;;;16.37;73.92;99514.59;111334;1200;137817;-67
2021/09/12 05:17:34;;;;;;;49.20;30.10;;;;;;;16.48;73.60;99515.86;111510;1204;24079;-65
2021/09/12 05:20:03;;;;;;;56.50;32.00;;;;;;;16.60;73.42;99509.86;115452;1204;22176;-66
2021/09/12 05:22:31;;;;;;;49.20;30.40;;;;;;;16.70;73.15;99507.65;115446;1203;137629;-66
2021/09/12 05:24:58;;;;;;;53.90;31.80;;;;;;;16.79;73.01;99508.87;115545;1205;22123;-66
2021/09/12 05:27:27;;;;;;;46.20;30.30;;;;;;;16.90;72.63;99507.65;115374;1201;137996;-66
2021/09/12 05:30:14;;;;;;;52.10;32.30;;;;;;;17.01;72.40;99508.80;115556;1205;22329;-66
2021/09/12 05:32:46;;;;;;;53.60;29.20;;;;;;;17.10;72.08;99500.88;115481;1199;139200;-66
2021/09/12 05:35:15;;;;;;;52.60;31.50;;;;;;;17.20;71.76;99501.36;115397;1209;23022;-66
2021/09/12 05:37:45;;;;;;;56.30;31.80;;;;;;;17.29;71.79;99501.09;115551;1210;22325;-66
2021/09/12 05:40:13;;;;;;;61.00;31.10;;;;;;;17.39;71.53;99507.48;115466;1201;139221;-65
2021/09/12 05:42:41;;;;;;;49.80;29.70;;;;;;;17.49;71.45;99509.80;115518;1205;22450;-66
2021/09/12 05:45:15;;;;;;;47.40;28.50;;;;;;;17.60;71.40;99506.26;115428;1201;138936;-66
2021/09/12 05:47:43;;;;;;;45.00;26.10;;;;;;;17.68;71.28;99503.77;115595;1205;23334;-66
2021/09/12 05:50:11;;;;;;;39.20;26.00;;;;;;;17.78;71.14;99503.66;115533;1205;22329;-66
2021/09/12 05:52:54;;;;;;;34.40;23.40;;;;;;;17.91;70.97;99505.02;115488;1201;138087;-67
2021/09/12 05:55:23;;;;;;;39.10;22.20;;;;;;;18.04;70.47;99503.54;115532;1205;22223;-67
2021/09/12 05:57:50;;;;;;;31.00;19.80;;;;;;;18.19;69.73;99500.52;115433;1201;138270;-66
2021/09/12 06:00:39;;;;;;;31.20;18.30;;;;;;;18.35;69.22;99501.53;115455;1204;22302;-66
2021/09/12 06:03:07;;;;;;;22.10;16.80;;;;;;;18.51;68.73;99500.09;115344;1201;138213;-67
2021/09/12 06:05:35;;;;;;;22.20;15.70;;;;;;;18.65;68.12;99504.76;115592;1204;22293;-66
2021/09/12 06:08:04;;;;;;;25.60;16.30;;;;;;;18.79;67.09;99504.16;115426;1205;22247;-66
2021/09/12 06:10:32;;;;;;;19.90;15.60;;;;;;;18.93;66.76;99508.23;115457;1202;137203;-66
2021/09/12 06:13:01;;;;;;;19.20;16.40;;;;;;;19.06;66.03;99506.73;115511;1209;22655;-66
2021/09/12 06:15:29;;;;;;;23.90;16.70;;;;;;;19.20;65.71;99508.81;114902;1202;137360;-66
2021/09/12 06:17:57;;;;;;;19.40;14.90;;;;;;;19.32;65.67;99503.02;111487;1205;23071;-66
2021/09/12 06:20:44;;;;;;;18.90;14.40;;;;;;;19.45;64.89;99503.41;115463;1199;137746;-66
2021/09/12 06:23:12;;;;;;;19.10;12.40;;;;;;;19.56;64.00;99508.40;115593;1204;22308;-66
2021/09/12 06:25:43;;;;;;;23.90;13.20;;;;;;;19.67;62.49;99509.74;115557;1203;22463;-65
2021/09/12 06:28:12;;;;;;;19.20;12.60;;;;;;;19.78;61.69;99510.13;115399;1201;138260;-66
2021/09/12 06:30:40;;;;;;;19.10;12.60;;;;;;;19.88;61.16;99508.24;115543;1205;22248;-66
2021/09/12 06:33:08;;;;;;;19.10;12.20;;;;;;;19.97;60.69;99509.48;115354;1202;137882;-66
2021/09/12 06:35:37;;;;;;;15.80;12.10;;;;;;;20.05;60.14;99510.13;115527;1204;23332;-66
2021/09/12 06:38:25;;;;;;;21.80;13.20;;;;;;;20.13;60.09;99514.55;115467;1204;23263;-66
2021/09/12 06:40:53;;;;;;;15.10;12.40;;;;;;;20.19;60.12;99520.22;115390;1200;137243;-66
2021/09/12 06:43:21;;;;;;;17.80;13.30;;;;;;;20.24;59.81;99518.89;115558;1204;22236;-65
2021/09/12 06:45:49;;;;;;;13.90;11.60;;;;;;;20.29;59.13;99514.45;115388;1201;137743;-64
2021/09/12 06:48:17;;;;;;;21.20;12.70;;;;;;;20.33;58.88;99522.41;115614;1210;23100;-65
2021/09/12 06:50:46;;;;;;;17.20;12.30;;;;;;;20.36;58.53;99514.86;115361;1201;137890;-64
2021/09/12 06:53:14;;;;;;;18.20;12.80;;;;;;;20.39;58.43;99514.10;115493;1205;22280;-64
2021/09/12 06:55:42;;;;;;;15.40;12.10;;;;;;;20.44;58.40;99514.48;115585;1204;22214;-65
2021/09/12 06:58:11;;;;;;;15.40;12.60;;;;;;;20.48;58.10;99517.94;115447;1201;138882;-65
2021/09/12 07:00:39;;;;;;;21.70;12.70;;;;;;;20.52;57.73;99519.14;115575;1210;23265;-65
2021/09/12 07:03:07;;;;;;;20.60;13.50;;;;;;;20.56;57.49;99520.91;115338;1202;137843;-66
2021/09/12 07:05:36;;;;;;;19.20;12.60;;;;;;;20.60;56.95;99521.66;115514;1204;22276;-65
2021/09/12 07:08:04;;;;;;;18.30;12.80;;;;;;;20.65;56.52;99518.13;115644;1205;22340;-65
2021/09/12 07:10:33;;;;;;;15.80;13.60;;;;;;;20.68;56.49;99520.20;115382;1201;137657;-65
2021/09/12 07:13:01;;;;;;;17.90;12.80;;;;;;;20.70;56.31;99517.69;115536;1211;23377;-65
2021/09/12 07:15:29;;;;;;;19.20;13.00;;;;;;;20.74;56.57;99524.61;115469;1201;137331;-65
2021/09/12 07:17:57;;;;;;;15.50;13.20;;;;;;;20.78;56.52;99522.64;115522;1204;22345;-66
2021/09/12 07:20:25;;;;;;;16.10;12.50;;;;;;;20.81;56.34;99525.31;115584;1204;22303;-66
2021/09/12 07:22:53;;;;;;;18.70;13.70;;;;;;;20.85;56.40;99524.92;115410;1201;137964;-66
2021/09/12 07:25:21;;;;;;;19.70;13.80;;;;;;;20.89;56.54;99523.77;115544;1204;22255;-66
2021/09/12 07:27:50;;;;;;;17.20;13.20;;;;;;;20.93;56.66;99520.45;115453;1201;137413;-65
2021/09/12 07:30:18;;;;;;;20.70;14.30;;;;;;;20.97;56.57;99524.04;115513;1204;22225;-65
2021/09/12 07:32:46;;;;;;;18.30;13.20;;;;;;;21.00;56.33;99518.77;115429;1201;137713;-65
2021/09/12 07:35:15;;;;;;;16.50;13.40;;;;;;;21.06;55.98;99521.63;115519;1204;22327;-65
2021/09/12 07:37:43;;;;;;;27.30;14.80;;;;;;;21.10;55.25;99525.46;115560;1204;23454;-65
2021/09/12 07:40:11;;;;;;;19.40;13.90;;;;;;;21.15;54.86;99522.34;115433;1201;138261;-65
2021/09/12 07:42:41;;;;;;;15.50;12.30;;;;;;;21.18;55.38;99524.30;115532;1203;23089;-65
2021/09/12 07:45:09;;;;;;;18.00;13.60;;;;;;;21.22;55.77;99521.56;115390;1201;137552;-65
2021/09/12 07:47:37;;;;;;;15.70;13.30;;;;;;;21.27;55.87;99522.73;115653;1204;23053;-68
2021/09/12 07:50:06;;;;;;;20.20;12.70;;;;;;;21.31;55.60;99521.77;115550;1204;22299;-68
2021/09/12 07:52:35;;;;;;;19.40;14.00;;;;;;;21.36;55.65;99524.02;115448;1201;138395;-67
2021/09/12 07:55:23;;;;;;;15.90;13.00;;;;;;;21.40;55.37;99526.42;115546;1205;22243;-67
2021/09/12 07:57:51;;;;;;;17.80;13.20;;;;;;;21.44;55.37;99525.09;115505;1199;137473;-67
2021/09/12 08:00:19;;;;;;;25.30;13.20;;;;;;;21.47;55.16;99526.20;115619;1204;22315;-67
2021/09/12 08:02:51;;;;;;;19.80;12.90;;;;;;;21.52;54.52;99524.70;115497;1204;138341;-67
2021/09/12 08:05:21;;;;;;;17.20;12.20;;;;;;;21.56;54.80;99528.73;115543;1204;22527;-67
2021/09/12 08:07:49;;;;;;;17.40;13.70;;;;;;;21.59;54.76;99522.54;115594;1204;22341;-67
2021/09/12 08:10:19;;;;;;;18.10;12.50;;;;;;;21.62;54.32;99518.41;115492;1199;137173;-67
2021/09/12 08:12:47;;;;;;;16.90;11.70;;;;;;;21.66;53.40;99518.64;115660;1210;22310;-67
2021/09/12 08:15:16;;;;;;;16.50;13.00;;;;;;;21.68;53.09;99516.91;115493;1192;138022;-67
2021/09/12 08:17:52;;;;;;;14.30;12.50;;;;;;;21.69;52.98;99515.94;115604;1204;22932;-67
2021/09/12 08:20:20;;;;;;;16.90;11.60;;;;;;;21.72;53.54;99518.45;115660;1205;23387;-66
2021/09/12 08:22:51;;;;;;;17.20;11.70;;;;;;;21.75;53.11;99515.73;115445;1199;137484;-69
2021/09/12 08:25:39;;;;;;;17.90;11.70;;;;;;;21.79;52.68;99516.81;115606;1204;23032;-66
2021/09/12 08:28:08;;;;;;;12.30;11.00;;;;;;;21.80;52.44;99513.20;115520;1199;137506;-67
2021/09/12 08:30:35;;;;;;;14.10;11.70;;;;;;;21.81;52.06;99515.39;115616;1203;23063;-67
2021/09/12 08:33:15;;;;;;;13.50;11.00;;;;;;;21.82;51.86;99513.46;115530;1199;137466;-67
2021/09/12 08:35:43;;;;;;;12.90;11.30;;;;;;;21.84;51.51;99515.68;115620;1203;22378;-68
2021/09/12 08:38:12;;;;;;;12.40;10.80;;;;;;;21.86;51.78;99510.17;115585;1203;22307;-68
2021/09/12 08:40:40;;;;;;;15.40;11.30;;;;;;;21.89;51.37;99511.00;115542;1199;137284;-68
2021/09/12 08:43:09;;;;;;;13.00;10.30;;;;;;;21.92;51.62;99505.38;115488;1211;22296;-68
2021/09/12 08:45:37;;;;;;;13.90;10.70;;;;;;;21.95;50.92;99511.94;115365;1201;138493;-68
2021/09/12 08:48:05;;;;;;;13.70;9.90;;;;;;;21.99;49.92;99514.64;115646;1203;22584;-67
2021/09/12 08:50:33;;;;;;;17.60;8.90;;;;;;;22.03;49.59;99513.88;115520;1200;137631;-66
2021/09/12 08:53:01;;;;;;;16.50;9.40;;;;;;;22.06;48.45;99515.92;115659;1204;22309;-68
2021/09/12 08:55:30;;;;;;;10.20;8.60;;;;;;;22.10;48.46;99515.29;115630;1204;23569;-68
2021/09/12 08:58:02;;;;;;;25.00;10.30;;;;;;;22.14;47.50;99514.48;115521;1199;136958;-68
2021/09/12 09:00:30;;;;;;;12.50;9.50;;;;;;;22.17;47.94;99512.16;115632;1204;22324;-66
2021/09/12 09:02:59;;;;;;;14.30;9.30;;;;;;;22.20;48.13;99508.82;115493;1199;138645;-65
2021/09/12 09:05:32;;;;;;;14.10;10.00;;;;;;;22.24;48.17;99511.71;115674;1203;23026;-65
2021/09/12 09:08:10;;;;;;;12.90;10.40;;;;;;;22.30;48.77;99507.02;115662;1203;22316;-66
2021/09/12 09:10:40;;;;;;;13.90;10.60;;;;;;;22.37;49.59;99506.67;115511;1200;137403;-67
2021/09/12 09:13:26;;;;;;;14.70;11.00;;;;;;;22.42;49.28;99502.37;115497;1204;22121;-67
2021/09/12 09:15:54;;;;;;;15.00;10.80;;;;;;;22.47;49.09;99502.87;115555;1199;138610;-67
2021/09/12 09:18:39;;;;;;;17.60;10.60;;;;;;;22.51;48.68;99505.73;115423;1211;22391;-67
2021/09/12 09:21:27;;;;;;;13.60;10.20;;;;;;;22.54;48.37;99503.88;115558;1201;138766;-66
2021/09/12 09:24:22;;;;;;;18.00;10.80;;;;;;;22.57;47.39;99501.84;115639;1204;22348;-67
2021/09/12 09:26:52;;;;;;;14.90;10.70;;;;;;;22.58;47.55;99497.68;115457;1200;138026;-67
2021/09/12 09:29:27;;;;;;;12.50;10.30;;;;;;;22.58;48.14;99494.26;115642;1209;22355;-67
2021/09/12 09:32:05;;;;;;;13.90;10.60;;;;;;;22.60;48.18;99493.30;115639;1204;22236;-67
2021/09/12 09:34:34;;;;;;;17.80;11.20;;;;;;;22.61;48.06;99487.57;115521;1199;137790;-67
2021/09/12 09:37:16;;;;;;;14.80;11.20;;;;;;;22.63;48.46;99484.55;115519;1204;23044;-67
2021/09/12 09:39:54;;;;;;;20.50;11.30;;;;;;;22.68;48.60;99484.96;115558;1200;137661;-66
2021/09/12 09:42:39;;;;;;;13.10;10.40;;;;;;;22.73;48.76;99485.63;115495;1204;22307;-67
2021/09/12 09:45:10;;;;;;;19.10;10.80;;;;;;;22.78;48.26;99482.05;115562;1199;137521;-67
2021/09/12 09:47:38;;;;;;;13.70;11.40;;;;;;;22.80;48.58;99483.93;115652;1210;22321;-66
2021/09/12 09:50:27;;;;;;;14.40;10.30;;;;;;;22.84;47.86;99488.38;115632;1205;23123;-66
2021/09/12 09:52:55;;;;;;;14.10;10.70;;;;;;;22.86;47.75;99485.66;115525;1199;137738;-66
2021/09/12 09:55:25;;;;;;;19.70;10.70;;;;;;;22.87;47.53;99485.97;115634;1203;22486;-67
2021/09/12 09:57:54;;;;;;;19.80;10.60;;;;;;;22.89;47.10;99483.02;115530;1199;137347;-67
2021/09/12 10:00:24;;;;;;;15.50;11.00;;;;;;;22.92;47.43;99482.02;115710;1203;23072;-66
2021/09/12 10:02:53;;;;;;;15.30;10.50;;;;;;;22.95;47.67;99478.54;115505;1199;138005;-66
2021/09/12 10:05:22;;;;;;;23.90;11.60;;;;;;;22.99;47.42;99478.92;115505;1204;22308;-66
2021/09/12 10:08:05;;;;;;;18.40;11.20;;;;;;;23.05;46.90;99474.05;115497;1210;22354;-67
2021/09/12 10:10:54;;;;;;;16.60;9.70;;;;;;;23.09;45.93;99476.67;115530;1199;138111;-67
2021/09/12 10:13:23;;;;;;;13.40;10.40;;;;;;;23.11;46.46;99477.46;115661;1203;22325;-67
2021/09/12 10:15:55;;;;;;;14.50;11.20;;;;;;;23.16;45.94;99478.83;115384;1201;138275;-66
2021/09/12 10:18:43;;;;;;;16.00;9.90;;;;;;;23.18;46.00;99481.23;115333;1206;22368;-67
2021/09/12 10:21:28;;;;;;;15.40;11.20;;;;;;;23.20;46.05;99479.78;115443;1201;138554;-65
2021/09/12 10:24:08;;;;;;;14.80;10.90;;;;;;;23.21;45.38;99478.95;115636;1203;22229;-66
2021/09/12 10:26:40;;;;;;;14.60;10.40;;;;;;;23.21;45.70;99475.84;115539;1200;137524;-66
2021/09/12 10:29:43;;;;;;;15.00;9.90;;;;;;;23.21;45.45;99466.72;115726;1204;22285;-67
2021/09/12 10:32:33;;;;;;;13.50;9.30;;;;;;;23.23;45.53;99465.88;115680;1204;22949;-67
2021/09/12 10:35:12;;;;;;;16.40;10.00;;;;;;;23.23;45.48;99466.37;115551;1200;137484;-66
2021/09/12 10:37:58;;;;;;;13.80;10.40;;;;;;;23.23;45.75;99462.70;115680;1203;22382;-66
2021/09/12 10:40:49;;;;;;;12.40;9.80;;;;;;;23.23;45.70;99458.66;115609;1199;137402;-66
2021/09/12 10:43:25;;;;;;;13.10;9.90;;;;;;;23.23;45.46;99461.05;115588;1204;22758;-66
2021/09/12 10:46:09;;;;;;;13.30;9.30;;;;;;;23.23;46.40;99461.20;115546;1199;138398;-67
2021/09/12 10:48:49;;;;;;;13.30;10.80;;;;;;;23.24;46.27;99458.63;115679;1203;22136;-66
2021/09/12 10:51:17;;;;;;;15.50;9.60;;;;;;;23.26;46.51;99452.98;115470;1199;138210;-65
2021/09/12 10:53:46;;;;;;;12.90;10.50;;;;;;;23.29;46.57;99454.10;115648;1204;22937;-66
2021/09/12 10:56:17;;;;;;;13.40;9.30;;;;;;;23.31;45.98;99449.49;115675;1210;22382;-66
2021/09/12 10:58:50;;;;;;;12.50;9.20;;;;;;;23.35;45.48;99453.61;115532;1201;137510;-65
2021/09/12 11:01:28;;;;;;;12.40;9.60;;;;;;;23.37;46.02;99447.70;115727;1204;22257;-65
2021/09/12 11:03:58;;;;;;;12.70;10.00;;;;;;;23.38;46.17;99445.45;115541;1200;138034;-66
2021/09/12 11:06:28;;;;;;;12.80;9.60;;;;;;;23.40;46.09;99449.00;113436;1203;22481;-65
2021/09/12 11:08:56;;;;;;;11.30;9.20;;;;;;;23.40;45.82;99446.46;111405;1199;138324;-67
2021/09/12 11:11:38;;;;;;;13.20;10.20;;;;;;;23.42;46.59;99446.13;111471;1204;25104;-67
2021/09/12 11:14:08;;;;;;;12.70;10.20;;;;;;;23.44;46.64;99444.94;115522;1203;23147;-67
2021/09/12 11:16:36;;;;;;;11.00;9.90;;;;;;;23.45;46.26;99444.33;115578;1203;137409;-68
2021/09/12 11:19:05;;;;;;;12.50;9.80;;;;;;;23.46;45.59;99442.29;115649;1203;23035;-68
2021/09/12 11:21:53;;;;;;;14.50;10.20;;;;;;;23.48;45.17;99442.95;115537;1201;137382;-68
2021/09/12 11:24:24;;;;;;;13.00;10.30;;;;;;;23.53;45.19;99442.42;115698;1203;22356;-67
2021/09/12 11:27:02;;;;;;;13.20;10.60;;;;;;;23.59;44.70;99441.99;115517;1201;138568;-66
2021/09/12 11:29:31;;;;;;;13.00;9.70;;;;;;;23.63;44.48;99438.39;115702;1203;22262;-67